sensor_id;sensor_type;location;lat;lon;timestamp;temperature;humidity
18670;DHT22;9464;44.918;9.670;2023-03-23T00:00:59;14.60;1.00
18670;DHT22;9464;44.918;9.670;2023-03-23T00:03:27;14.60;1.00
18670;DHT22;9464;44.918;9.670;2023-03-23T00:05:58;14.60;1.00
18670;DHT22;9464;44.918;9.670;2023-03-23T00:08:31;14.50;1.00
18670;DHT22;9464;44.918;9.670;2023-03-23T00:10:59;14.50;1.00
18670;DHT22;9464;44.918;9.670;2023-03-23T00:13:28;14.40;1.00
18670;DHT22;9464;44.918;9.670;2023-03-23T00:15:57;14.40;1.00
18670;DHT22;9464;44.918;9.670;2023-03-23T00:18:24;14.40;1.00
18670;DHT22;9464;44.918;9.670;2023-03-23T00:20:53;14.40;1.00
18670;DHT22;9464;44.918;9.670;2023-03-23T00:23:22;14.40;1.00
18670;DHT22;9464;44.918;9.670;2023-03-23T00:25:51;14.50;1.00
18670;DHT22;9464;44.918;9.670;2023-03-23T00:28:23;14.50;1.00
18670;DHT22;9464;44.918;9.670;2023-03-23T00:30:57;14.40;1.00
18670;DHT22;9464;44.918;9.670;2023-03-23T00:33:26;14.40;1.00
18670;DHT22;9464;44.918;9.670;2023-03-23T00:35:53;14.40;1.00
18670;DHT22;9464;44.918;9.670;2023-03-23T00:38:22;14.40;1.00
18670;DHT22;9464;44.918;9.670;2023-03-23T00:40:49;14.40;1.00
18670;DHT22;9464;44.918;9.670;2023-03-23T00:43:18;14.30;1.00
18670;DHT22;9464;44.918;9.670;2023-03-23T00:45:46;14.40;1.00
18670;DHT22;9464;44.918;9.670;2023-03-23T00:48:19;14.30;1.00
18670;DHT22;9464;44.918;9.670;2023-03-23T00:50:47;14.30;1.00
18670;DHT22;9464;44.918;9.670;2023-03-23T00:53:14;14.30;1.00
18670;DHT22;9464;44.918;9.670;2023-03-23T00:55:42;14.30;1.00
18670;DHT22;9464;44.918;9.670;2023-03-23T00:58:09;14.20;1.00
18670;DHT22;9464;44.918;9.670;2023-03-23T01:00:37;14.20;1.00
18670;DHT22;9464;44.918;9.670;2023-03-23T01:03:05;14.20;1.00
18670;DHT22;9464;44.918;9.670;2023-03-23T01:05:36;14.20;1.00
18670;DHT22;9464;44.918;9.670;2023-03-23T01:08:04;14.10;1.00
18670;DHT22;9464;44.918;9.670;2023-03-23T01:10:31;14.10;1.00
18670;DHT22;9464;44.918;9.670;2023-03-23T01:12:59;14.10;1.00
18670;DHT22;9464;44.918;9.670;2023-03-23T01:15:28;14.00;1.00
18670;DHT22;9464;44.918;9.670;2023-03-23T01:17:56;14.00;1.00
18670;DHT22;9464;44.918;9.670;2023-03-23T01:20:24;14.00;1.00
18670;DHT22;9464;44.918;9.670;2023-03-23T01:22:53;14.10;1.00
18670;DHT22;9464;44.918;9.670;2023-03-23T01:25:26;14.00;1.00
18670;DHT22;9464;44.918;9.670;2023-03-23T01:27:54;14.00;1.00
18670;DHT22;9464;44.918;9.670;2023-03-23T01:30:21;14.00;1.00
18670;DHT22;9464;44.918;9.670;2023-03-23T01:32:49;14.00;1.00
18670;DHT22;9464;44.918;9.670;2023-03-23T01:35:16;14.00;1.00
18670;DHT22;9464;44.918;9.670;2023-03-23T01:37:43;14.00;1.00
18670;DHT22;9464;44.918;9.670;2023-03-23T01:40:12;14.00;1.00
18670;DHT22;9464;44.918;9.670;2023-03-23T01:42:39;14.00;1.00
18670;DHT22;9464;44.918;9.670;2023-03-23T01:45:26;14.00;1.00
18670;DHT22;9464;44.918;9.670;2023-03-23T01:48:09;14.00;1.00
18670;DHT22;9464;44.918;9.670;2023-03-23T01:50:42;14.00;1.00
18670;DHT22;9464;44.918;9.670;2023-03-23T01:53:11;14.00;1.00
18670;DHT22;9464;44.918;9.670;2023-03-23T01:55:41;14.00;1.00
18670;DHT22;9464;44.918;9.670;2023-03-23T01:58:15;13.90;1.00
18670;DHT22;9464;44.918;9.670;2023-03-23T02:00:43;13.90;1.00
18670;DHT22;9464;44.918;9.670;2023-03-23T02:03:12;13.90;1.00
18670;DHT22;9464;44.918;9.670;2023-03-23T02:05:42;13.90;1.00
18670;DHT22;9464;44.918;9.670;2023-03-23T02:08:10;13.90;1.00
18670;DHT22;9464;44.918;9.670;2023-03-23T02:10:41;13.90;1.00
18670;DHT22;9464;44.918;9.670;2023-03-23T02:13:09;13.90;1.00
18670;DHT22;9464;44.918;9.670;2023-03-23T02:15:47;13.90;1.00
18670;DHT22;9464;44.918;9.670;2023-03-23T02:18:41;13.90;1.00
18670;DHT22;9464;44.918;9.670;2023-03-23T02:24:30;13.80;1.00
18670;DHT22;9464;44.918;9.670;2023-03-23T02:27:01;13.80;1.00
18670;DHT22;9464;44.918;9.670;2023-03-23T02:32:46;13.70;1.00
18670;DHT22;9464;44.918;9.670;2023-03-23T02:35:23;13.70;1.00
18670;DHT22;9464;44.918;9.670;2023-03-23T02:37:57;13.70;1.00
18670;DHT22;9464;44.918;9.670;2023-03-23T02:40:32;13.60;1.00
18670;DHT22;9464;44.918;9.670;2023-03-23T02:43:01;13.60;1.00
18670;DHT22;9464;44.918;9.670;2023-03-23T02:45:30;13.60;1.00
18670;DHT22;9464;44.918;9.670;2023-03-23T02:47:59;13.50;1.00
18670;DHT22;9464;44.918;9.670;2023-03-23T02:50:30;13.50;1.00
18670;DHT22;9464;44.918;9.670;2023-03-23T02:53:00;13.50;1.00
18670;DHT22;9464;44.918;9.670;2023-03-23T02:55:28;13.40;1.00
18670;DHT22;9464;44.918;9.670;2023-03-23T02:57:56;13.40;1.00
18670;DHT22;9464;44.918;9.670;2023-03-23T03:00:23;13.40;1.00
18670;DHT22;9464;44.918;9.670;2023-03-23T03:02:52;13.30;1.00
18670;DHT22;9464;44.918;9.670;2023-03-23T03:05:34;13.30;1.00
18670;DHT22;9464;44.918;9.670;2023-03-23T03:08:13;13.30;1.00
18670;DHT22;9464;44.918;9.670;2023-03-23T03:10:49;13.30;1.00
18670;DHT22;9464;44.918;9.670;2023-03-23T03:13:24;13.30;1.00
18670;DHT22;9464;44.918;9.670;2023-03-23T03:15:58;13.30;1.00
18670;DHT22;9464;44.918;9.670;2023-03-23T03:18:29;13.20;1.00
18670;DHT22;9464;44.918;9.670;2023-03-23T03:21:02;13.20;1.00
18670;DHT22;9464;44.918;9.670;2023-03-23T03:23:32;13.20;1.00
18670;DHT22;9464;44.918;9.670;2023-03-23T03:26:02;13.20;1.00
18670;DHT22;9464;44.918;9.670;2023-03-23T03:28:31;13.10;1.00
18670;DHT22;9464;44.918;9.670;2023-03-23T03:31:01;13.10;1.00
18670;DHT22;9464;44.918;9.670;2023-03-23T03:33:30;13.10;1.00
18670;DHT22;9464;44.918;9.670;2023-03-23T03:36:02;13.10;1.00
18670;DHT22;9464;44.918;9.670;2023-03-23T03:38:39;13.00;1.00
18670;DHT22;9464;44.918;9.670;2023-03-23T03:41:07;13.00;1.00
18670;DHT22;9464;44.918;9.670;2023-03-23T03:43:34;13.00;1.00
18670;DHT22;9464;44.918;9.670;2023-03-23T03:46:01;13.00;1.00
18670;DHT22;9464;44.918;9.670;2023-03-23T03:48:29;13.00;1.00
18670;DHT22;9464;44.918;9.670;2023-03-23T03:50:56;12.90;1.00
18670;DHT22;9464;44.918;9.670;2023-03-23T03:53:24;12.90;1.00
18670;DHT22;9464;44.918;9.670;2023-03-23T03:55:51;12.90;1.00
18670;DHT22;9464;44.918;9.670;2023-03-23T03:58:21;12.90;1.00
18670;DHT22;9464;44.918;9.670;2023-03-23T04:00:48;12.90;1.00
18670;DHT22;9464;44.918;9.670;2023-03-23T04:03:15;12.90;1.00
18670;DHT22;9464;44.918;9.670;2023-03-23T04:05:43;12.90;1.00
18670;DHT22;9464;44.918;9.670;2023-03-23T04:08:10;12.90;1.00
18670;DHT22;9464;44.918;9.670;2023-03-23T04:10:39;12.90;1.00
18670;DHT22;9464;44.918;9.670;2023-03-23T04:13:06;12.90;1.00
18670;DHT22;9464;44.918;9.670;2023-03-23T04:15:33;12.80;1.00
18670;DHT22;9464;44.918;9.670;2023-03-23T04:18:00;12.90;1.00
18670;DHT22;9464;44.918;9.670;2023-03-23T04:20:27;12.90;1.00
18670;DHT22;9464;44.918;9.670;2023-03-23T04:22:54;12.90;1.00
18670;DHT22;9464;44.918;9.670;2023-03-23T04:25:21;12.90;1.00
18670;DHT22;9464;44.918;9.670;2023-03-23T04:27:51;12.90;1.00
18670;DHT22;9464;44.918;9.670;2023-03-23T04:30:20;12.90;1.00
18670;DHT22;9464;44.918;9.670;2023-03-23T04:32:48;13.00;1.00
18670;DHT22;9464;44.918;9.670;2023-03-23T04:35:19;13.00;1.00
18670;DHT22;9464;44.918;9.670;2023-03-23T04:37:47;13.00;1.00
18670;DHT22;9464;44.918;9.670;2023-03-23T04:40:16;13.00;1.00
18670;DHT22;9464;44.918;9.670;2023-03-23T04:42:44;13.10;1.00
18670;DHT22;9464;44.918;9.670;2023-03-23T04:45:15;13.10;1.00
18670;DHT22;9464;44.918;9.670;2023-03-23T04:47:48;13.10;1.00
18670;DHT22;9464;44.918;9.670;2023-03-23T04:50:21;13.10;1.00
18670;DHT22;9464;44.918;9.670;2023-03-23T04:52:50;13.10;1.00
18670;DHT22;9464;44.918;9.670;2023-03-23T04:55:18;13.00;1.00
18670;DHT22;9464;44.918;9.670;2023-03-23T04:57:47;13.00;1.00
18670;DHT22;9464;44.918;9.670;2023-03-23T05:00:16;12.90;1.00
18670;DHT22;9464;44.918;9.670;2023-03-23T05:02:44;13.00;1.00
18670;DHT22;9464;44.918;9.670;2023-03-23T05:05:13;12.90;1.00
18670;DHT22;9464;44.918;9.670;2023-03-23T05:07:42;12.90;1.00
18670;DHT22;9464;44.918;9.670;2023-03-23T05:10:10;12.90;1.00
18670;DHT22;9464;44.918;9.670;2023-03-23T05:12:38;12.90;1.00
18670;DHT22;9464;44.918;9.670;2023-03-23T05:15:07;12.90;1.00
18670;DHT22;9464;44.918;9.670;2023-03-23T05:17:35;12.80;1.00
18670;DHT22;9464;44.918;9.670;2023-03-23T05:20:04;12.80;1.00
18670;DHT22;9464;44.918;9.670;2023-03-23T05:22:34;12.70;1.00
18670;DHT22;9464;44.918;9.670;2023-03-23T05:25:02;12.70;1.00
18670;DHT22;9464;44.918;9.670;2023-03-23T05:27:29;12.70;1.00
18670;DHT22;9464;44.918;9.670;2023-03-23T05:29:58;12.60;1.00
18670;DHT22;9464;44.918;9.670;2023-03-23T05:32:27;12.60;1.00
18670;DHT22;9464;44.918;9.670;2023-03-23T05:34:58;12.60;1.00
18670;DHT22;9464;44.918;9.670;2023-03-23T05:37:27;12.60;1.00
18670;DHT22;9464;44.918;9.670;2023-03-23T05:39:58;12.60;1.00
18670;DHT22;9464;44.918;9.670;2023-03-23T05:42:30;12.60;1.00
18670;DHT22;9464;44.918;9.670;2023-03-23T05:44:58;12.50;1.00
18670;DHT22;9464;44.918;9.670;2023-03-23T05:47:26;12.50;1.00
18670;DHT22;9464;44.918;9.670;2023-03-23T05:49:53;12.50;1.00
18670;DHT22;9464;44.918;9.670;2023-03-23T05:52:22;12.50;1.00
18670;DHT22;9464;44.918;9.670;2023-03-23T05:54:50;12.50;1.00
18670;DHT22;9464;44.918;9.670;2023-03-23T05:57:18;12.50;1.00
18670;DHT22;9464;44.918;9.670;2023-03-23T05:59:47;12.50;1.00
18670;DHT22;9464;44.918;9.670;2023-03-23T06:02:15;12.50;1.00
18670;DHT22;9464;44.918;9.670;2023-03-23T06:04:42;12.50;1.00
18670;DHT22;9464;44.918;9.670;2023-03-23T06:07:09;12.50;1.00
18670;DHT22;9464;44.918;9.670;2023-03-23T06:09:41;12.50;1.00
18670;DHT22;9464;44.918;9.670;2023-03-23T06:12:09;12.50;1.00
18670;DHT22;9464;44.918;9.670;2023-03-23T06:14:37;12.50;1.00
18670;DHT22;9464;44.918;9.670;2023-03-23T06:17:04;12.50;1.00
18670;DHT22;9464;44.918;9.670;2023-03-23T06:19:31;12.60;1.00
18670;DHT22;9464;44.918;9.670;2023-03-23T06:21:59;12.60;1.00
18670;DHT22;9464;44.918;9.670;2023-03-23T06:24:27;12.60;1.00
18670;DHT22;9464;44.918;9.670;2023-03-23T06:26:56;12.60;1.00
18670;DHT22;9464;44.918;9.670;2023-03-23T06:29:23;12.70;1.00
18670;DHT22;9464;44.918;9.670;2023-03-23T06:31:54;12.70;1.00
18670;DHT22;9464;44.918;9.670;2023-03-23T06:34:22;12.70;1.00
18670;DHT22;9464;44.918;9.670;2023-03-23T06:36:50;12.70;1.00
18670;DHT22;9464;44.918;9.670;2023-03-23T06:39:18;12.80;1.00
18670;DHT22;9464;44.918;9.670;2023-03-23T06:41:45;12.80;1.00
18670;DHT22;9464;44.918;9.670;2023-03-23T06:44:13;12.80;1.00
18670;DHT22;9464;44.918;9.670;2023-03-23T06:46:41;12.90;1.00
18670;DHT22;9464;44.918;9.670;2023-03-23T06:49:09;13.00;1.00
18670;DHT22;9464;44.918;9.670;2023-03-23T06:51:36;13.00;1.00
18670;DHT22;9464;44.918;9.670;2023-03-23T06:54:04;13.10;1.00
18670;DHT22;9464;44.918;9.670;2023-03-23T06:56:31;13.10;1.00
18670;DHT22;9464;44.918;9.670;2023-03-23T06:58:58;13.20;1.00
18670;DHT22;9464;44.918;9.670;2023-03-23T07:01:27;13.20;1.00
18670;DHT22;9464;44.918;9.670;2023-03-23T07:03:54;13.30;1.00
18670;DHT22;9464;44.918;9.670;2023-03-23T07:06:23;13.40;1.00
18670;DHT22;9464;44.918;9.670;2023-03-23T07:08:50;13.40;1.00
18670;DHT22;9464;44.918;9.670;2023-03-23T07:11:17;13.50;1.00
18670;DHT22;9464;44.918;9.670;2023-03-23T07:13:45;13.60;1.00
18670;DHT22;9464;44.918;9.670;2023-03-23T07:16:12;13.70;1.00
18670;DHT22;9464;44.918;9.670;2023-03-23T07:18:40;13.80;1.00
18670;DHT22;9464;44.918;9.670;2023-03-23T07:21:07;13.90;1.00
18670;DHT22;9464;44.918;9.670;2023-03-23T07:23:35;13.90;1.00
18670;DHT22;9464;44.918;9.670;2023-03-23T07:26:03;14.00;1.00
18670;DHT22;9464;44.918;9.670;2023-03-23T07:28:31;14.00;1.00
18670;DHT22;9464;44.918;9.670;2023-03-23T07:30:58;14.00;1.00
18670;DHT22;9464;44.918;9.670;2023-03-23T07:33:26;14.10;1.00
18670;DHT22;9464;44.918;9.670;2023-03-23T07:35:54;14.10;1.00
18670;DHT22;9464;44.918;9.670;2023-03-23T07:38:21;14.10;1.00
18670;DHT22;9464;44.918;9.670;2023-03-23T07:40:50;14.10;1.00
18670;DHT22;9464;44.918;9.670;2023-03-23T07:43:18;14.10;1.00
18670;DHT22;9464;44.918;9.670;2023-03-23T07:45:46;14.20;1.00
18670;DHT22;9464;44.918;9.670;2023-03-23T07:48:13;14.20;1.00
18670;DHT22;9464;44.918;9.670;2023-03-23T07:50:40;14.20;1.00
18670;DHT22;9464;44.918;9.670;2023-03-23T07:53:08;14.20;1.00
18670;DHT22;9464;44.918;9.670;2023-03-23T07:55:36;14.20;1.00
18670;DHT22;9464;44.918;9.670;2023-03-23T07:58:03;14.20;1.00
18670;DHT22;9464;44.918;9.670;2023-03-23T08:00:30;14.20;1.00
18670;DHT22;9464;44.918;9.670;2023-03-23T08:02:58;14.20;1.00
18670;DHT22;9464;44.918;9.670;2023-03-23T08:05:26;14.20;1.00
18670;DHT22;9464;44.918;9.670;2023-03-23T08:07:54;14.30;1.00
18670;DHT22;9464;44.918;9.670;2023-03-23T08:10:23;14.30;1.00
18670;DHT22;9464;44.918;9.670;2023-03-23T08:12:53;14.30;1.00
18670;DHT22;9464;44.918;9.670;2023-03-23T08:15:21;14.40;1.00
18670;DHT22;9464;44.918;9.670;2023-03-23T08:17:49;14.40;1.00
18670;DHT22;9464;44.918;9.670;2023-03-23T08:20:17;14.40;1.00
18670;DHT22;9464;44.918;9.670;2023-03-23T08:22:55;14.40;1.00
18670;DHT22;9464;44.918;9.670;2023-03-23T08:25:24;14.40;1.00
18670;DHT22;9464;44.918;9.670;2023-03-23T08:27:52;14.50;1.00
18670;DHT22;9464;44.918;9.670;2023-03-23T08:30:21;14.50;1.00
18670;DHT22;9464;44.918;9.670;2023-03-23T08:32:50;14.50;1.00
18670;DHT22;9464;44.918;9.670;2023-03-23T08:35:18;14.60;1.00
18670;DHT22;9464;44.918;9.670;2023-03-23T08:37:46;14.60;1.00
18670;DHT22;9464;44.918;9.670;2023-03-23T08:40:17;14.60;1.00
18670;DHT22;9464;44.918;9.670;2023-03-23T08:42:47;14.70;1.00
18670;DHT22;9464;44.918;9.670;2023-03-23T08:45:17;14.70;1.00
18670;DHT22;9464;44.918;9.670;2023-03-23T08:47:45;14.80;1.00
18670;DHT22;9464;44.918;9.670;2023-03-23T08:50:16;14.80;1.00
18670;DHT22;9464;44.918;9.670;2023-03-23T08:52:43;14.80;1.00
18670;DHT22;9464;44.918;9.670;2023-03-23T08:55:11;14.90;1.00
18670;DHT22;9464;44.918;9.670;2023-03-23T08:57:39;15.00;1.00
18670;DHT22;9464;44.918;9.670;2023-03-23T09:00:12;15.00;1.00
18670;DHT22;9464;44.918;9.670;2023-03-23T09:02:41;15.00;1.00
18670;DHT22;9464;44.918;9.670;2023-03-23T09:05:09;15.10;1.00
18670;DHT22;9464;44.918;9.670;2023-03-23T09:07:37;15.10;1.00
18670;DHT22;9464;44.918;9.670;2023-03-23T09:10:05;15.20;1.00
18670;DHT22;9464;44.918;9.670;2023-03-23T09:12:32;15.20;1.00
18670;DHT22;9464;44.918;9.670;2023-03-23T09:15:00;15.20;1.00
18670;DHT22;9464;44.918;9.670;2023-03-23T09:17:32;15.30;1.00
18670;DHT22;9464;44.918;9.670;2023-03-23T09:19:59;15.30;1.00
18670;DHT22;9464;44.918;9.670;2023-03-23T09:22:26;15.30;1.00
18670;DHT22;9464;44.918;9.670;2023-03-23T09:24:53;15.40;1.00
18670;DHT22;9464;44.918;9.670;2023-03-23T09:27:20;15.40;1.00
18670;DHT22;9464;44.918;9.670;2023-03-23T09:29:47;15.50;1.00
18670;DHT22;9464;44.918;9.670;2023-03-23T09:32:15;15.40;1.00
18670;DHT22;9464;44.918;9.670;2023-03-23T09:34:44;15.50;1.00
18670;DHT22;9464;44.918;9.670;2023-03-23T09:37:11;15.60;1.00
18670;DHT22;9464;44.918;9.670;2023-03-23T09:39:40;15.60;1.00
18670;DHT22;9464;44.918;9.670;2023-03-23T09:42:18;15.70;1.00
18670;DHT22;9464;44.918;9.670;2023-03-23T09:44:57;15.80;1.00
18670;DHT22;9464;44.918;9.670;2023-03-23T09:47:34;15.90;1.00
18670;DHT22;9464;44.918;9.670;2023-03-23T09:50:09;15.90;1.00
18670;DHT22;9464;44.918;9.670;2023-03-23T09:52:49;16.00;1.00
18670;DHT22;9464;44.918;9.670;2023-03-23T09:55:19;16.10;1.00
18670;DHT22;9464;44.918;9.670;2023-03-23T09:57:51;16.20;1.00
18670;DHT22;9464;44.918;9.670;2023-03-23T10:00:23;16.20;1.00
18670;DHT22;9464;44.918;9.670;2023-03-23T10:02:58;16.20;1.00
18670;DHT22;9464;44.918;9.670;2023-03-23T10:05:34;16.30;1.00
18670;DHT22;9464;44.918;9.670;2023-03-23T10:08:08;16.20;1.00
18670;DHT22;9464;44.918;9.670;2023-03-23T10:10:45;16.20;1.00
18670;DHT22;9464;44.918;9.670;2023-03-23T10:13:20;16.30;1.00
18670;DHT22;9464;44.918;9.670;2023-03-23T10:15:51;16.30;1.00
18670;DHT22;9464;44.918;9.670;2023-03-23T10:18:25;16.30;1.00
18670;DHT22;9464;44.918;9.670;2023-03-23T10:20:57;16.40;1.00
18670;DHT22;9464;44.918;9.670;2023-03-23T10:23:45;16.40;1.00
18670;DHT22;9464;44.918;9.670;2023-03-23T10:26:23;16.50;1.00
18670;DHT22;9464;44.918;9.670;2023-03-23T10:28:56;16.50;1.00
18670;DHT22;9464;44.918;9.670;2023-03-23T10:31:30;16.50;1.00
18670;DHT22;9464;44.918;9.670;2023-03-23T10:34:02;16.60;1.00
18670;DHT22;9464;44.918;9.670;2023-03-23T10:36:35;16.60;1.00
18670;DHT22;9464;44.918;9.670;2023-03-23T10:39:11;16.60;1.00
18670;DHT22;9464;44.918;9.670;2023-03-23T10:41:40;16.70;1.00
18670;DHT22;9464;44.918;9.670;2023-03-23T10:44:15;16.70;1.00
18670;DHT22;9464;44.918;9.670;2023-03-23T10:46:48;16.70;1.00
18670;DHT22;9464;44.918;9.670;2023-03-23T10:49:23;16.70;1.00
18670;DHT22;9464;44.918;9.670;2023-03-23T10:51:58;16.70;1.00
18670;DHT22;9464;44.918;9.670;2023-03-23T10:54:31;16.70;1.00
18670;DHT22;9464;44.918;9.670;2023-03-23T10:56:59;16.60;1.00
18670;DHT22;9464;44.918;9.670;2023-03-23T10:59:28;16.60;1.00
18670;DHT22;9464;44.918;9.670;2023-03-23T11:02:00;16.60;1.00
18670;DHT22;9464;44.918;9.670;2023-03-23T11:04:30;16.60;1.00
18670;DHT22;9464;44.918;9.670;2023-03-23T11:07:01;16.60;1.00
18670;DHT22;9464;44.918;9.670;2023-03-23T11:09:36;16.60;1.00
18670;DHT22;9464;44.918;9.670;2023-03-23T11:12:04;16.60;1.00
18670;DHT22;9464;44.918;9.670;2023-03-23T11:14:33;16.60;1.00
18670;DHT22;9464;44.918;9.670;2023-03-23T11:17:03;16.60;1.00
18670;DHT22;9464;44.918;9.670;2023-03-23T11:19:33;16.60;1.00
18670;DHT22;9464;44.918;9.670;2023-03-23T11:22:07;16.60;1.00
18670;DHT22;9464;44.918;9.670;2023-03-23T11:24:37;16.60;1.00
18670;DHT22;9464;44.918;9.670;2023-03-23T11:27:08;16.70;1.00
18670;DHT22;9464;44.918;9.670;2023-03-23T11:29:47;16.70;1.00
18670;DHT22;9464;44.918;9.670;2023-03-23T11:32:16;16.70;1.00
18670;DHT22;9464;44.918;9.670;2023-03-23T11:34:45;16.70;1.00
18670;DHT22;9464;44.918;9.670;2023-03-23T11:37:24;16.70;1.00
18670;DHT22;9464;44.918;9.670;2023-03-23T11:39:55;16.70;1.00
18670;DHT22;9464;44.918;9.670;2023-03-23T11:42:26;16.80;1.00
18670;DHT22;9464;44.918;9.670;2023-03-23T11:45:13;16.80;1.00
18670;DHT22;9464;44.918;9.670;2023-03-23T11:47:46;16.90;1.00
18670;DHT22;9464;44.918;9.670;2023-03-23T11:50:17;16.90;1.00
18670;DHT22;9464;44.918;9.670;2023-03-23T11:52:51;16.90;1.00
18670;DHT22;9464;44.918;9.670;2023-03-23T11:55:22;16.90;1.00
18670;DHT22;9464;44.918;9.670;2023-03-23T11:57:51;16.90;1.00
18670;DHT22;9464;44.918;9.670;2023-03-23T12:00:21;17.00;1.00
18670;DHT22;9464;44.918;9.670;2023-03-23T12:05:46;17.00;1.00
18670;DHT22;9464;44.918;9.670;2023-03-23T12:08:28;17.10;1.00
18670;DHT22;9464;44.918;9.670;2023-03-23T12:11:02;17.10;1.00
18670;DHT22;9464;44.918;9.670;2023-03-23T12:13:54;17.10;1.00
18670;DHT22;9464;44.918;9.670;2023-03-23T12:16:34;17.20;1.00
18670;DHT22;9464;44.918;9.670;2023-03-23T12:19:12;17.20;1.00
18670;DHT22;9464;44.918;9.670;2023-03-23T12:21:49;17.20;1.00
18670;DHT22;9464;44.918;9.670;2023-03-23T12:24:29;17.30;1.00
18670;DHT22;9464;44.918;9.670;2023-03-23T12:27:03;17.30;1.00
18670;DHT22;9464;44.918;9.670;2023-03-23T12:32:47;17.40;1.00
18670;DHT22;9464;44.918;9.670;2023-03-23T12:35:25;17.40;1.00
18670;DHT22;9464;44.918;9.670;2023-03-23T12:38:04;17.40;1.00
18670;DHT22;9464;44.918;9.670;2023-03-23T12:40:48;17.40;1.00
18670;DHT22;9464;44.918;9.670;2023-03-23T12:43:21;17.40;1.00
18670;DHT22;9464;44.918;9.670;2023-03-23T12:46:20;17.50;1.00
18670;DHT22;9464;44.918;9.670;2023-03-23T12:48:54;17.50;1.00
18670;DHT22;9464;44.918;9.670;2023-03-23T12:51:26;17.50;1.00
18670;DHT22;9464;44.918;9.670;2023-03-23T12:53:58;17.50;1.00
18670;DHT22;9464;44.918;9.670;2023-03-23T12:56:33;17.60;1.00
18670;DHT22;9464;44.918;9.670;2023-03-23T12:59:07;17.60;1.00
18670;DHT22;9464;44.918;9.670;2023-03-23T13:01:41;17.60;1.00
18670;DHT22;9464;44.918;9.670;2023-03-23T13:04:11;17.60;1.00
18670;DHT22;9464;44.918;9.670;2023-03-23T13:06:42;17.60;1.00
18670;DHT22;9464;44.918;9.670;2023-03-23T13:09:14;17.70;1.00
18670;DHT22;9464;44.918;9.670;2023-03-23T13:11:44;17.70;1.00
18670;DHT22;9464;44.918;9.670;2023-03-23T13:14:28;17.70;1.00
18670;DHT22;9464;44.918;9.670;2023-03-23T13:17:06;17.80;1.00
18670;DHT22;9464;44.918;9.670;2023-03-23T13:19:58;17.80;1.00
18670;DHT22;9464;44.918;9.670;2023-03-23T13:22:31;17.80;1.00
18670;DHT22;9464;44.918;9.670;2023-03-23T13:25:02;17.80;1.00
18670;DHT22;9464;44.918;9.670;2023-03-23T13:27:32;17.90;1.00
18670;DHT22;9464;44.918;9.670;2023-03-23T13:29:59;17.90;1.00
18670;DHT22;9464;44.918;9.670;2023-03-23T13:32:33;17.90;1.00
18670;DHT22;9464;44.918;9.670;2023-03-23T13:35:02;18.00;1.00
18670;DHT22;9464;44.918;9.670;2023-03-23T13:37:30;17.90;1.00
18670;DHT22;9464;44.918;9.670;2023-03-23T13:39:59;17.90;1.00
18670;DHT22;9464;44.918;9.670;2023-03-23T13:42:27;18.00;1.00
18670;DHT22;9464;44.918;9.670;2023-03-23T13:45:20;18.00;1.00
18670;DHT22;9464;44.918;9.670;2023-03-23T13:47:48;18.00;1.00
18670;DHT22;9464;44.918;9.670;2023-03-23T13:50:26;18.10;1.00
18670;DHT22;9464;44.918;9.670;2023-03-23T13:52:59;18.10;1.00
18670;DHT22;9464;44.918;9.670;2023-03-23T13:55:39;18.10;1.00
18670;DHT22;9464;44.918;9.670;2023-03-23T13:58:20;18.10;1.00
18670;DHT22;9464;44.918;9.670;2023-03-23T14:01:01;18.20;1.00
18670;DHT22;9464;44.918;9.670;2023-03-23T14:03:35;18.10;1.00
18670;DHT22;9464;44.918;9.670;2023-03-23T14:06:05;18.20;1.00
18670;DHT22;9464;44.918;9.670;2023-03-23T14:08:39;18.20;1.00
18670;DHT22;9464;44.918;9.670;2023-03-23T14:11:13;18.20;1.00
18670;DHT22;9464;44.918;9.670;2023-03-23T14:13:46;18.20;1.00
18670;DHT22;9464;44.918;9.670;2023-03-23T14:16:18;18.20;1.00
18670;DHT22;9464;44.918;9.670;2023-03-23T14:18:52;18.20;1.00
18670;DHT22;9464;44.918;9.670;2023-03-23T14:21:33;18.30;1.00
18670;DHT22;9464;44.918;9.670;2023-03-23T14:24:02;18.30;1.00
18670;DHT22;9464;44.918;9.670;2023-03-23T14:26:34;18.30;1.00
18670;DHT22;9464;44.918;9.670;2023-03-23T14:29:03;18.30;1.00
18670;DHT22;9464;44.918;9.670;2023-03-23T14:31:34;18.30;1.00
18670;DHT22;9464;44.918;9.670;2023-03-23T14:34:04;18.40;1.00
18670;DHT22;9464;44.918;9.670;2023-03-23T14:36:37;18.40;1.00
18670;DHT22;9464;44.918;9.670;2023-03-23T14:39:11;18.30;1.00
18670;DHT22;9464;44.918;9.670;2023-03-23T14:41:41;18.40;1.00
18670;DHT22;9464;44.918;9.670;2023-03-23T14:44:14;18.40;1.00
18670;DHT22;9464;44.918;9.670;2023-03-23T14:46:44;18.40;1.00
18670;DHT22;9464;44.918;9.670;2023-03-23T14:49:14;18.40;1.00
18670;DHT22;9464;44.918;9.670;2023-03-23T14:51:49;18.40;1.00
18670;DHT22;9464;44.918;9.670;2023-03-23T14:54:21;18.40;1.00
18670;DHT22;9464;44.918;9.670;2023-03-23T14:56:49;18.50;1.00
18670;DHT22;9464;44.918;9.670;2023-03-23T14:59:16;18.40;1.00
18670;DHT22;9464;44.918;9.670;2023-03-23T15:01:46;18.50;1.00
18670;DHT22;9464;44.918;9.670;2023-03-23T15:04:17;18.50;1.00
18670;DHT22;9464;44.918;9.670;2023-03-23T15:06:48;18.50;1.00
18670;DHT22;9464;44.918;9.670;2023-03-23T15:09:18;18.50;1.00
18670;DHT22;9464;44.918;9.670;2023-03-23T15:11:53;18.50;1.00
18670;DHT22;9464;44.918;9.670;2023-03-23T15:14:22;18.50;1.00
18670;DHT22;9464;44.918;9.670;2023-03-23T15:16:54;18.50;1.00
18670;DHT22;9464;44.918;9.670;2023-03-23T15:19:25;18.50;1.00
18670;DHT22;9464;44.918;9.670;2023-03-23T15:21:54;18.50;1.00
18670;DHT22;9464;44.918;9.670;2023-03-23T15:24:27;18.50;1.00
18670;DHT22;9464;44.918;9.670;2023-03-23T15:27:03;18.50;1.00
18670;DHT22;9464;44.918;9.670;2023-03-23T15:29:46;18.60;1.00
18670;DHT22;9464;44.918;9.670;2023-03-23T15:32:20;18.60;1.00
18670;DHT22;9464;44.918;9.670;2023-03-23T15:34:47;18.60;1.00
18670;DHT22;9464;44.918;9.670;2023-03-23T15:37:19;18.60;1.00
18670;DHT22;9464;44.918;9.670;2023-03-23T15:39:47;18.60;1.00
18670;DHT22;9464;44.918;9.670;2023-03-23T15:42:23;18.70;1.00
18670;DHT22;9464;44.918;9.670;2023-03-23T15:45:05;18.70;1.00
18670;DHT22;9464;44.918;9.670;2023-03-23T15:47:44;18.70;1.00
18670;DHT22;9464;44.918;9.670;2023-03-23T15:50:13;18.60;1.00
18670;DHT22;9464;44.918;9.670;2023-03-23T15:52:41;18.70;1.00
18670;DHT22;9464;44.918;9.670;2023-03-23T15:55:20;18.70;1.00
18670;DHT22;9464;44.918;9.670;2023-03-23T15:57:48;18.70;1.00
18670;DHT22;9464;44.918;9.670;2023-03-23T16:00:17;18.70;1.00
18670;DHT22;9464;44.918;9.670;2023-03-23T16:02:49;18.60;1.00
18670;DHT22;9464;44.918;9.670;2023-03-23T16:05:20;18.60;1.00
18670;DHT22;9464;44.918;9.670;2023-03-23T16:07:49;18.60;1.00
18670;DHT22;9464;44.918;9.670;2023-03-23T16:10:19;18.60;1.00
18670;DHT22;9464;44.918;9.670;2023-03-23T16:12:47;18.60;1.00
18670;DHT22;9464;44.918;9.670;2023-03-23T16:15:16;18.60;1.00
18670;DHT22;9464;44.918;9.670;2023-03-23T16:17:45;18.60;1.00
18670;DHT22;9464;44.918;9.670;2023-03-23T16:20:17;18.60;1.00
18670;DHT22;9464;44.918;9.670;2023-03-23T16:22:46;18.60;1.00
18670;DHT22;9464;44.918;9.670;2023-03-23T16:25:15;18.60;1.00
18670;DHT22;9464;44.918;9.670;2023-03-23T16:27:44;18.50;1.00
18670;DHT22;9464;44.918;9.670;2023-03-23T16:30:21;18.50;1.00
18670;DHT22;9464;44.918;9.670;2023-03-23T16:32:50;18.50;1.00
18670;DHT22;9464;44.918;9.670;2023-03-23T16:35:22;18.50;1.00
18670;DHT22;9464;44.918;9.670;2023-03-23T16:37:52;18.50;1.00